createdAt,value
2019-06-27T00:00:21.389Z,99399.70
2019-06-27T00:02:51.087Z,99397.70
2019-06-27T00:05:21.934Z,99395.72
2019-06-27T00:07:51.556Z,99394.69
2019-06-27T00:10:21.636Z,99396.34
2019-06-27T00:12:51.145Z,99398.22
2019-06-27T00:15:20.693Z,99399.68
2019-06-27T00:17:50.280Z,99397.80
2019-06-27T00:20:19.902Z,99398.16
2019-06-27T00:22:49.410Z,99398.19
2019-06-27T00:25:18.958Z,99398.03
2019-06-27T00:27:48.565Z,99403.59
2019-06-27T00:30:18.391Z,99402.09
2019-06-27T00:32:48.150Z,99402.91
2019-06-27T00:35:17.694Z,99405.72
2019-06-27T00:37:47.380Z,99411.30
2019-06-27T00:40:17.061Z,99410.49
2019-06-27T00:42:46.605Z,99406.64
2019-06-27T00:45:17.132Z,99414.64
2019-06-27T00:47:46.819Z,99417.28
2019-06-27T00:50:18.597Z,99424.41
2019-06-27T00:52:48.201Z,99423.08
2019-06-27T00:55:18.217Z,99421.70
2019-06-27T00:57:47.755Z,99422.39
2019-06-27T01:00:18.806Z,99426.24
2019-06-27T01:02:48.347Z,99424.28
2019-06-27T01:05:18.569Z,99426.57
2019-06-27T01:07:48.302Z,99424.11
2019-06-27T01:10:19.017Z,99422.11
2019-06-27T01:12:48.836Z,99418.97
2019-06-27T01:15:18.495Z,99423.76
2019-06-27T01:17:48.074Z,99421.91
2019-06-27T01:20:18.007Z,99416.97
2019-06-27T01:22:47.835Z,99421.95
2019-06-27T01:25:17.489Z,99420.95
2019-06-27T01:27:47.187Z,99421.27
2019-06-27T01:30:17.362Z,99420.30
2019-06-27T01:32:46.902Z,99421.27
2019-06-27T01:35:16.626Z,99421.91
2019-06-27T01:37:46.160Z,99423.39
2019-06-27T01:40:17.020Z,99422.18
2019-06-27T01:42:46.696Z,99430.14
2019-06-27T01:45:21.475Z,99423.71
2019-06-27T01:47:51.061Z,99428.38
2019-06-27T01:50:20.608Z,99428.33
2019-06-27T01:52:50.155Z,99431.14
2019-06-27T01:55:19.872Z,99433.91
2019-06-27T01:57:49.414Z,99440.02
2019-06-27T02:00:19.647Z,99432.38
2019-06-27T02:02:49.301Z,99438.00
2019-06-27T02:05:18.960Z,99440.66
2019-06-27T02:07:48.565Z,99440.17
2019-06-27T02:10:18.981Z,99438.74
2019-06-27T02:12:48.519Z,99443.80
2019-06-27T02:15:22.076Z,99439.49
2019-06-27T02:17:50.471Z,99434.25
2019-06-27T02:20:20.310Z,99447.66
2019-06-27T02:22:50.001Z,99444.84
2019-06-27T02:25:20.184Z,99448.61
2019-06-27T02:28:03.209Z,99444.55
2019-06-27T02:30:42.573Z,99449.78
2019-06-27T02:33:12.438Z,99453.28
2019-06-27T02:35:42.171Z,99455.08
2019-06-27T02:38:11.849Z,99462.08
2019-06-27T02:40:41.503Z,99461.80
2019-06-27T02:43:11.121Z,99467.19
2019-06-27T02:45:40.703Z,99460.46
2019-06-27T02:48:10.590Z,99457.43
2019-06-27T02:50:40.110Z,99448.23
2019-06-27T02:53:09.653Z,99453.27
2019-06-27T02:55:39.166Z,99450.70
2019-06-27T02:58:28.551Z,99451.45
2019-06-27T03:00:40.013Z,99459.23
2019-06-27T03:03:09.548Z,99464.38
2019-06-27T03:05:39.155Z,99464.84
2019-06-27T03:08:08.750Z,99463.23
2019-06-27T03:10:38.265Z,99459.20
2019-06-27T03:13:07.807Z,99456.41
2019-06-27T03:15:37.324Z,99454.61
2019-06-27T03:18:06.945Z,99458.56
2019-06-27T03:20:36.458Z,99461.12
2019-06-27T03:23:05.978Z,99462.86
2019-06-27T03:25:35.489Z,99464.63
2019-06-27T03:28:05.095Z,99457.41
2019-06-27T03:30:34.617Z,99467.64
2019-06-27T03:33:04.232Z,99461.08
2019-06-27T03:35:33.739Z,99459.97
2019-06-27T03:38:03.290Z,99460.87
2019-06-27T03:40:32.805Z,99461.99
2019-06-27T03:43:02.358Z,99463.11
2019-06-27T03:45:31.932Z,99467.89
2019-06-27T03:48:01.467Z,99472.88
2019-06-27T03:50:30.993Z,99471.20
2019-06-27T03:53:00.611Z,99474.05
2019-06-27T03:55:30.124Z,99475.79
2019-06-27T03:57:59.661Z,99474.07
2019-06-27T04:00:35.860Z,99478.58
2019-06-27T04:03:05.393Z,99477.78
2019-06-27T04:05:34.923Z,99476.09
2019-06-27T04:08:04.668Z,99477.72
2019-06-27T04:10:34.422Z,99478.02
2019-06-27T04:13:03.960Z,99483.11
2019-06-27T04:15:33.554Z,99483.65
2019-06-27T04:18:03.119Z,99481.55
2019-06-27T04:20:32.758Z,99483.80
2019-06-27T04:23:02.294Z,99482.77
2019-06-27T04:25:31.978Z,99484.81
2019-06-27T04:28:01.518Z,99492.28
2019-06-27T04:30:31.036Z,99493.53
2019-06-27T04:33:00.570Z,99493.05
2019-06-27T04:35:30.147Z,99491.09
2019-06-27T04:37:59.664Z,99490.95
2019-06-27T04:40:29.211Z,99493.52
2019-06-27T04:42:58.786Z,99499.35
2019-06-27T04:45:28.320Z,99497.58
2019-06-27T04:47:57.835Z,99497.64
2019-06-27T04:50:27.376Z,99497.64
2019-06-27T04:52:56.892Z,99495.32
2019-06-27T04:55:26.432Z,99490.39
2019-06-27T04:57:55.949Z,99494.75
2019-06-27T05:00:30.781Z,99492.80
2019-06-27T05:03:00.488Z,99491.83
2019-06-27T05:05:30.157Z,99496.13
2019-06-27T05:07:59.670Z,99490.36
2019-06-27T05:10:29.212Z,99492.86
2019-06-27T05:12:59.433Z,99489.52
2019-06-27T05:15:28.943Z,99486.60
2019-06-27T05:17:58.505Z,99489.91
2019-06-27T05:20:28.088Z,99491.44
2019-06-27T05:22:57.606Z,99487.26
2019-06-27T05:25:29.611Z,99488.25
2019-06-27T05:27:58.551Z,99493.45
2019-06-27T05:30:28.088Z,99492.82
2019-06-27T05:32:57.598Z,99489.03
2019-06-27T05:35:27.138Z,99484.42
2019-06-27T05:37:56.652Z,99494.02
2019-06-27T05:40:26.202Z,99490.95
2019-06-27T05:42:56.147Z,99489.11
2019-06-27T05:45:25.786Z,99484.50
2019-06-27T05:47:55.308Z,99488.83
2019-06-27T05:50:24.839Z,99499.97
2019-06-27T05:52:54.413Z,99494.46
2019-06-27T05:55:23.952Z,99490.81
2019-06-27T05:57:53.472Z,99494.46
2019-06-27T06:00:28.728Z,99500.09
2019-06-27T06:02:54.707Z,99498.34
2019-06-27T06:05:24.304Z,99494.54
2019-06-27T06:07:53.811Z,99495.86
2019-06-27T06:10:23.343Z,99495.08
2019-06-27T06:12:52.852Z,99490.95
2019-06-27T06:15:22.392Z,99500.58
2019-06-27T06:17:52.164Z,99495.61
2019-06-27T06:20:22.814Z,99503.77
2019-06-27T06:22:52.397Z,99500.96
2019-06-27T06:25:22.051Z,99504.30
2019-06-27T06:27:51.584Z,99507.17
2019-06-27T06:30:22.126Z,99510.67
2019-06-27T06:32:51.662Z,99504.55
2019-06-27T06:35:21.191Z,99516.34
2019-06-27T06:37:50.821Z,99485.75
2019-06-27T06:40:20.791Z,99514.88
2019-06-27T06:42:50.448Z,99518.69
2019-06-27T06:45:20.355Z,99522.52
2019-06-27T06:47:49.870Z,99520.19
2019-06-27T06:50:23.143Z,99528.55
2019-06-27T06:52:50.714Z,99535.23
2019-06-27T06:55:20.221Z,99536.61
2019-06-27T06:57:49.759Z,99535.13
2019-06-27T07:00:19.875Z,99536.63
2019-06-27T07:02:49.439Z,99538.95
2019-06-27T07:05:18.995Z,99546.74
2019-06-27T07:07:48.534Z,99545.63
2019-06-27T07:10:18.499Z,99540.65
2019-06-27T07:12:48.030Z,99538.48
2019-06-27T07:15:18.188Z,99545.00
2019-06-27T07:17:48.306Z,99545.84
2019-06-27T07:20:18.577Z,99543.87
2019-06-27T07:22:48.321Z,99542.88
2019-06-27T07:25:17.881Z,99554.17
2019-06-27T07:27:47.433Z,99550.88
2019-06-27T07:30:17.448Z,99554.86
2019-06-27T07:32:46.982Z,99550.74
2019-06-27T07:35:16.573Z,99554.23
2019-06-27T07:37:46.211Z,99547.54
2019-06-27T07:40:16.649Z,99558.48
2019-06-27T07:42:46.248Z,99553.50
2019-06-27T07:45:15.966Z,99561.70
2019-06-27T07:47:45.499Z,99566.49
2019-06-27T07:50:15.145Z,99565.48
2019-06-27T07:52:44.679Z,99563.84
2019-06-27T07:55:14.705Z,99565.89
2019-06-27T07:57:44.244Z,99565.38
2019-06-27T08:00:13.969Z,99560.07
2019-06-27T08:02:43.499Z,99565.73
2019-06-27T08:05:13.413Z,99560.30
2019-06-27T08:07:42.945Z,99560.14
2019-06-27T08:10:14.484Z,99560.83
2019-06-27T08:12:44.149Z,99559.83
2019-06-27T08:15:14.394Z,99567.98
2019-06-27T08:17:44.770Z,99570.45
2019-06-27T08:20:14.662Z,99568.80
2019-06-27T08:22:44.198Z,99562.33
2019-06-27T08:25:22.715Z,99559.19
2019-06-27T08:27:52.245Z,99559.71
2019-06-27T08:30:21.970Z,99563.20
2019-06-27T08:32:51.514Z,99561.72
2019-06-27T08:35:21.018Z,99557.42
2019-06-27T08:37:50.551Z,99558.79
2019-06-27T08:40:20.368Z,99560.80
2019-06-27T08:42:49.914Z,99556.46
2019-06-27T08:45:19.680Z,99559.68
2019-06-27T08:47:49.288Z,99552.76
2019-06-27T08:50:19.517Z,99558.59
2019-06-27T08:52:49.135Z,99555.29
2019-06-27T08:55:18.724Z,99559.27
2019-06-27T08:57:48.297Z,99563.09
2019-06-27T09:00:19.277Z,99555.65
2019-06-27T09:02:48.843Z,99558.98
2019-06-27T09:05:18.439Z,99558.02
2019-06-27T09:07:48.036Z,99560.51
2019-06-27T09:10:18.061Z,99554.55
2019-06-27T09:12:47.603Z,99548.75
2019-06-27T09:15:17.552Z,99552.89
2019-06-27T09:17:47.416Z,99554.61
2019-06-27T09:20:17.436Z,99554.31
2019-06-27T09:22:47.050Z,99556.30
2019-06-27T09:25:17.307Z,99552.98
2019-06-27T09:27:47.415Z,99554.83
2019-06-27T09:30:19.044Z,99561.83
2019-06-27T09:32:48.711Z,99560.66
2019-06-27T09:35:18.646Z,99556.70
2019-06-27T09:37:48.296Z,99558.54
2019-06-27T09:40:18.511Z,99559.76
2019-06-27T09:42:48.250Z,99560.24
2019-06-27T09:45:18.074Z,99567.05
2019-06-27T09:47:47.665Z,99564.23
2019-06-27T09:50:21.265Z,99562.24
2019-06-27T09:52:49.011Z,99562.45
2019-06-27T09:55:18.956Z,99565.63
2019-06-27T09:57:48.619Z,99571.43
2019-06-27T10:00:19.091Z,99567.83
2019-06-27T10:02:48.602Z,99557.21
2019-06-27T10:05:18.287Z,99554.89
2019-06-27T10:07:47.806Z,99557.37
2019-06-27T10:10:17.684Z,99559.20
2019-06-27T10:12:47.255Z,99554.89
2019-06-27T10:15:17.301Z,99553.39
2019-06-27T10:17:46.811Z,99552.91
2019-06-27T10:20:16.783Z,99554.24
2019-06-27T10:22:46.367Z,99554.24
2019-06-27T10:25:16.141Z,99543.95
2019-06-27T10:27:45.725Z,99544.93
2019-06-27T10:30:17.615Z,99544.93
2019-06-27T10:32:58.580Z,99548.78
2019-06-27T10:35:18.582Z,99546.59
2019-06-27T10:37:48.114Z,99543.30
2019-06-27T10:40:20.012Z,99541.63
2019-06-27T10:42:49.602Z,99532.14
2019-06-27T10:45:19.534Z,99537.50
2019-06-27T10:47:49.076Z,99538.17
2019-06-27T10:50:18.774Z,99535.34
2019-06-27T10:52:48.304Z,99538.32
2019-06-27T10:55:17.836Z,99539.66
2019-06-27T10:57:47.361Z,99533.99
2019-06-27T11:00:17.508Z,99535.28
2019-06-27T11:02:47.094Z,99528.00
2019-06-27T11:05:16.959Z,99530.30
2019-06-27T11:07:46.578Z,99528.28
2019-06-27T11:10:16.250Z,99523.63
2019-06-27T11:12:45.994Z,99514.97
2019-06-27T11:15:15.872Z,99515.11
2019-06-27T11:17:45.413Z,99518.27
2019-06-27T11:20:15.715Z,99509.12
2019-06-27T11:22:45.344Z,99513.25
2019-06-27T11:25:15.682Z,99505.22
2019-06-27T11:27:45.202Z,99508.89
2019-06-27T11:30:15.333Z,99506.67
2019-06-27T11:32:44.849Z,99509.47
2019-06-27T11:35:16.253Z,99505.29
2019-06-27T11:37:45.760Z,99504.66
2019-06-27T11:40:16.206Z,99497.66
2019-06-27T11:42:46.711Z,99502.12
2019-06-27T11:45:16.732Z,99499.11
2019-06-27T11:47:46.239Z,99502.34
2019-06-27T11:50:16.129Z,99500.70
2019-06-27T11:52:47.214Z,99498.03
2019-06-27T11:55:17.047Z,99494.27
2019-06-27T11:57:46.635Z,99491.50
2019-06-27T12:00:16.873Z,99484.45
2019-06-27T12:02:46.382Z,99488.97
2019-06-27T12:05:16.063Z,99486.70
2019-06-27T12:07:45.635Z,99486.69
2019-06-27T12:10:16.884Z,99482.70
2019-06-27T12:12:46.401Z,99476.67
2019-06-27T12:15:16.126Z,99476.40
2019-06-27T12:17:45.643Z,99480.08
2019-06-27T12:20:17.509Z,99465.05
2019-06-27T12:22:47.180Z,99471.09
2019-06-27T12:25:17.093Z,99470.09
2019-06-27T12:27:46.630Z,99467.50
2019-06-27T12:30:16.993Z,99468.16
2019-06-27T12:32:52.618Z,99469.46
2019-06-27T12:35:17.898Z,99470.55
2019-06-27T12:37:47.426Z,99468.43
2019-06-27T12:40:17.438Z,99466.84
2019-06-27T12:42:47.796Z,99466.90
2019-06-27T12:45:18.076Z,99465.80
2019-06-27T12:47:47.670Z,99465.95
2019-06-27T12:50:18.701Z,99465.20
2019-06-27T12:52:48.246Z,99467.45
2019-06-27T12:55:18.256Z,99459.05
2019-06-27T12:57:47.860Z,99460.70
2019-06-27T13:00:18.669Z,99465.55
2019-06-27T13:02:48.299Z,99461.59
2019-06-27T13:05:20.538Z,99461.70
2019-06-27T13:07:49.479Z,99448.12
2019-06-27T13:10:19.125Z,99451.20
2019-06-27T13:12:49.099Z,99453.94
2019-06-27T13:15:20.261Z,99446.64
2019-06-27T13:17:50.392Z,99444.18
2019-06-27T13:20:20.221Z,99440.98
2019-06-27T13:22:49.879Z,99440.31
2019-06-27T13:25:19.608Z,99436.70
2019-06-27T13:27:49.630Z,99434.31
2019-06-27T13:30:19.423Z,99439.77
2019-06-27T13:32:49.305Z,99435.28
2019-06-27T13:35:18.959Z,99430.71
2019-06-27T13:37:48.992Z,99421.23
2019-06-27T13:40:19.059Z,99418.96
2019-06-27T13:42:49.149Z,99428.27
2019-06-27T13:45:18.873Z,99422.47
2019-06-27T13:47:48.427Z,99416.69
2019-06-27T13:50:18.990Z,99418.34
2019-06-27T13:52:48.520Z,99413.98
2019-06-27T13:55:18.363Z,99409.59
2019-06-27T13:57:47.898Z,99411.94
2019-06-27T14:00:20.967Z,99405.94
2019-06-27T14:02:50.496Z,99400.15
2019-06-27T14:05:20.034Z,99404.06
2019-06-27T14:07:49.722Z,99402.44
2019-06-27T14:10:19.291Z,99399.97
2019-06-27T14:12:48.817Z,99393.77
2019-06-27T14:15:18.488Z,99398.99
2019-06-27T14:17:48.044Z,99391.14
2019-06-27T14:20:17.619Z,99392.52
2019-06-27T14:22:47.157Z,99386.20
2019-06-27T14:25:16.733Z,99386.95
2019-06-27T14:27:46.239Z,99381.86
2019-06-27T14:30:17.634Z,99380.17
2019-06-27T14:32:47.224Z,99374.59
2019-06-27T14:35:16.811Z,99379.52
2019-06-27T14:37:46.326Z,99381.70
2019-06-27T14:40:16.200Z,99381.50
2019-06-27T14:42:45.707Z,99377.34
2019-06-27T14:45:15.444Z,99372.32
2019-06-27T14:47:45.824Z,99369.69
2019-06-27T14:50:16.236Z,99370.40
2019-06-27T14:52:45.819Z,99368.20
2019-06-27T14:55:15.903Z,99365.09
2019-06-27T14:57:45.424Z,99359.94
2019-06-27T15:00:15.540Z,99363.65
2019-06-27T15:02:45.052Z,99353.51
2019-06-27T15:05:28.085Z,99354.11
2019-06-27T15:07:46.130Z,99359.54
2019-06-27T15:10:16.887Z,99351.03
2019-06-27T15:12:56.635Z,99354.48
2019-06-27T15:15:18.249Z,99349.94
2019-06-27T15:17:47.756Z,99357.59
2019-06-27T15:20:17.808Z,99350.57
2019-06-27T15:22:47.679Z,99350.67
2019-06-27T15:25:18.002Z,99341.80
2019-06-27T15:27:47.512Z,99341.13
2019-06-27T15:30:17.188Z,99346.13
2019-06-27T15:32:46.701Z,99339.53
2019-06-27T15:35:16.639Z,99347.09
2019-06-27T15:37:46.145Z,99346.69
2019-06-27T15:40:16.026Z,99342.44
2019-06-27T15:42:45.538Z,99341.73
2019-06-27T15:45:15.693Z,99336.58
2019-06-27T15:47:45.202Z,99337.55
2019-06-27T15:50:14.733Z,99339.98
2019-06-27T15:52:44.322Z,99333.39
2019-06-27T15:55:14.205Z,99333.59
2019-06-27T15:57:43.721Z,99329.58
2019-06-27T16:00:13.888Z,99329.78
2019-06-27T16:02:43.399Z,99337.17
2019-06-27T16:05:13.839Z,99331.02
2019-06-27T16:07:43.363Z,99328.09
2019-06-27T16:10:13.052Z,99327.46
2019-06-27T16:12:42.571Z,99332.04
2019-06-27T16:15:12.708Z,99323.94
2019-06-27T16:17:42.301Z,99324.58
2019-06-27T16:20:14.368Z,99326.95
2019-06-27T16:22:43.934Z,99331.16
2019-06-27T16:25:14.977Z,99324.59
2019-06-27T16:27:44.563Z,99331.72
2019-06-27T16:30:14.704Z,99328.80
2019-06-27T16:32:44.282Z,99334.48
2019-06-27T16:35:13.958Z,99334.78
2019-06-27T16:37:43.461Z,99334.09
2019-06-27T16:40:13.223Z,99334.60
2019-06-27T16:42:42.810Z,99335.44
2019-06-27T16:45:13.264Z,99335.83
2019-06-27T16:47:42.774Z,99336.03
2019-06-27T16:50:12.446Z,99332.91
2019-06-27T16:52:41.959Z,99334.69
2019-06-27T16:55:11.734Z,99328.31
2019-06-27T16:57:41.328Z,99333.35
2019-06-27T17:00:11.772Z,99331.37
2019-06-27T17:02:41.355Z,99329.20
2019-06-27T17:05:11.278Z,99327.11
2019-06-27T17:07:40.792Z,99328.16
2019-06-27T17:10:11.305Z,99331.48
2019-06-27T17:12:40.827Z,99339.55
2019-06-27T17:15:11.317Z,99332.56
2019-06-27T17:17:40.983Z,99335.28
2019-06-27T17:20:10.930Z,99337.70
2019-06-27T17:22:40.520Z,99345.71
2019-06-27T17:25:10.393Z,99335.08
2019-06-27T17:27:39.977Z,99336.55
2019-06-27T17:30:11.826Z,99340.06
2019-06-27T17:32:41.340Z,99339.73
2019-06-27T17:35:11.518Z,99345.45
2019-06-27T17:37:41.049Z,99339.52
2019-06-27T17:40:12.396Z,99344.86
2019-06-27T17:42:41.913Z,99341.42
2019-06-27T17:45:12.481Z,99346.05
2019-06-27T17:47:42.003Z,99346.09
2019-06-27T17:50:12.559Z,99346.17
2019-06-27T17:52:42.404Z,99344.50
2019-06-27T17:55:12.848Z,99340.27
2019-06-27T17:57:42.680Z,99344.50
2019-06-27T18:00:12.835Z,99343.02
2019-06-27T18:02:42.431Z,99342.75
2019-06-27T18:05:12.023Z,99343.97
2019-06-27T18:07:41.568Z,99337.83
2019-06-27T18:10:12.100Z,99338.86
2019-06-27T18:12:42.621Z,99342.09
2019-06-27T18:15:12.973Z,99342.97
2019-06-27T18:17:43.736Z,99340.61
2019-06-27T18:20:13.696Z,99343.00
2019-06-27T18:22:43.225Z,99346.89
2019-06-27T18:25:12.816Z,99347.11
2019-06-27T18:27:42.352Z,99345.80
2019-06-27T18:30:12.865Z,99347.14
2019-06-27T18:32:42.761Z,99344.53
2019-06-27T18:35:12.828Z,99346.06
2019-06-27T18:37:42.354Z,99347.61
2019-06-27T18:40:12.579Z,99347.92
2019-06-27T18:42:42.125Z,99356.30
2019-06-27T18:45:11.942Z,99356.88
2019-06-27T18:47:41.477Z,99352.47
2019-06-27T18:50:11.606Z,99358.52
2019-06-27T18:52:41.139Z,99354.23
2019-06-27T18:55:11.283Z,99369.27
2019-06-27T18:57:40.948Z,99364.69
2019-06-27T19:00:11.151Z,99365.73
2019-06-27T19:02:40.753Z,99367.06
2019-06-27T19:05:10.835Z,99368.57
2019-06-27T19:07:45.805Z,99372.09
2019-06-27T19:10:12.289Z,99371.98
2019-06-27T19:12:41.834Z,99378.01
2019-06-27T19:15:11.783Z,99378.73
2019-06-27T19:17:41.329Z,99386.56
2019-06-27T19:20:23.600Z,99386.80
2019-06-27T19:23:11.222Z,99391.31
2019-06-27T19:25:42.376Z,99397.04
2019-06-27T19:28:11.909Z,99395.22
2019-06-27T19:30:41.855Z,99392.55
2019-06-27T19:33:11.473Z,99399.42
2019-06-27T19:35:41.009Z,99402.28
2019-06-27T19:38:10.546Z,99406.14
2019-06-27T19:40:40.151Z,99404.98
2019-06-27T19:43:26.323Z,99413.16
2019-06-27T19:45:41.075Z,99421.50
2019-06-27T19:48:11.014Z,99423.70
2019-06-27T19:50:40.534Z,99423.53
2019-06-27T19:53:10.072Z,99423.56
2019-06-27T19:55:39.595Z,99427.72
2019-06-27T20:00:31.919Z,99431.53
2019-06-27T20:03:01.460Z,99437.37
2019-06-27T20:05:30.977Z,99444.53
2019-06-27T20:08:00.526Z,99441.20
2019-06-27T20:10:30.170Z,99444.19
2019-06-27T20:12:59.727Z,99449.02
2019-06-27T20:15:29.245Z,99449.84
2019-06-27T20:17:58.785Z,99453.50
2019-06-27T20:20:28.574Z,99453.52
2019-06-27T20:22:58.102Z,99459.98
2019-06-27T20:25:27.628Z,99460.50
2019-06-27T20:27:57.285Z,99460.16
2019-06-27T20:30:26.858Z,99464.08
2019-06-27T20:32:56.514Z,99463.27
2019-06-27T20:35:26.097Z,99473.39
2019-06-27T20:37:55.629Z,99476.55
2019-06-27T20:40:26.805Z,99476.55
2019-06-27T20:42:56.316Z,99476.38
2019-06-27T20:45:27.137Z,99479.02
2019-06-27T20:47:57.685Z,99481.36
2019-06-27T20:50:27.338Z,99485.31
2019-06-27T20:52:57.129Z,99484.79
2019-06-27T20:55:26.675Z,99484.94
2019-06-27T20:57:56.245Z,99490.19
2019-06-27T21:00:26.325Z,99490.21
2019-06-27T21:02:55.836Z,99496.01
2019-06-27T21:05:25.368Z,99498.84
2019-06-27T21:07:54.877Z,99499.64
2019-06-27T21:10:25.048Z,99496.09
2019-06-27T21:12:54.551Z,99502.54
2019-06-27T21:15:24.439Z,99501.19
2019-06-27T21:17:54.017Z,99507.47
2019-06-27T21:20:24.055Z,99508.59
2019-06-27T21:22:53.750Z,99509.56
2019-06-27T21:25:23.348Z,99511.50
2019-06-27T21:27:53.161Z,99516.28
2019-06-27T21:30:22.834Z,99509.66
2019-06-27T21:32:52.341Z,99518.45
2019-06-27T21:35:21.888Z,99514.44
2019-06-27T21:37:51.390Z,99518.70
2019-06-27T21:40:21.091Z,99524.81
2019-06-27T21:42:50.645Z,99524.41
2019-06-27T21:45:20.267Z,99530.47
2019-06-27T21:47:49.781Z,99528.81
2019-06-27T21:50:19.656Z,99527.64
2019-06-27T21:52:49.166Z,99530.42
2019-06-27T21:55:19.165Z,99529.09
2019-06-27T21:57:48.672Z,99536.83
2019-06-27T22:00:19.017Z,99530.63
2019-06-27T22:02:48.540Z,99532.21
2019-06-27T22:05:18.212Z,99532.64
2019-06-27T22:07:47.723Z,99532.80
2019-06-27T22:10:17.661Z,99533.06
2019-06-27T22:12:47.169Z,99532.69
2019-06-27T22:15:17.364Z,99530.66
2019-06-27T22:17:46.880Z,99528.40
2019-06-27T22:20:16.656Z,99530.20
2019-06-27T22:22:46.165Z,99529.19
2019-06-27T22:25:16.200Z,99526.44
2019-06-27T22:27:45.711Z,99528.28
2019-06-27T22:30:16.992Z,99527.87
2019-06-27T22:32:46.770Z,99528.84
2019-06-27T22:35:16.702Z,99529.69
2019-06-27T22:38:03.853Z,99528.99
2019-06-27T22:40:50.809Z,99527.37
2019-06-27T22:43:37.765Z,99526.79
2019-06-27T22:46:25.376Z,99524.14
2019-06-27T22:48:54.448Z,99520.44
2019-06-27T22:51:41.691Z,99523.27
2019-06-27T22:54:12.844Z,99522.42
2019-06-27T22:56:42.381Z,99522.66
2019-06-27T22:59:11.973Z,99529.23
2019-06-27T23:01:41.512Z,99526.73
2019-06-27T23:04:11.016Z,99527.98
2019-06-27T23:06:40.657Z,99525.00
2019-06-27T23:09:10.298Z,99525.00
2019-06-27T23:11:39.829Z,99526.88
2019-06-27T23:14:09.342Z,99529.89
2019-06-27T23:16:38.877Z,99526.15
2019-06-27T23:19:11.497Z,99525.26
2019-06-27T23:21:39.639Z,99527.42
2019-06-27T23:24:09.157Z,99533.91
2019-06-27T23:26:38.685Z,99534.80
2019-06-27T23:29:08.193Z,99534.54
2019-06-27T23:31:37.717Z,99535.61
2019-06-27T23:34:07.225Z,99531.84
2019-06-27T23:36:36.758Z,99532.38
2019-06-27T23:39:06.417Z,99532.76
2019-06-27T23:41:36.273Z,99533.83
2019-06-27T23:44:05.792Z,99534.36
2019-06-27T23:46:39.729Z,99537.27
2019-06-27T23:49:10.817Z,99533.25
2019-06-27T23:51:40.912Z,99532.27
2019-06-27T23:54:10.892Z,99530.63
2019-06-27T23:56:40.452Z,99532.14
2019-06-27T23:59:09.978Z,99535.05
